sensor_id;sensor_type;location;lat;lon;timestamp;noise_LAeq;noise_LA_min;noise_LA_max;noise_LA01;noise_LA95
49215;Laerm;45943;53.148;8.204;2024-01-15T00:02:23;45.14;41.13;58.81;;
49215;Laerm;45943;53.148;8.204;2024-01-15T00:04:49;53.37;44.04;62.91;;
49215;Laerm;45943;53.148;8.204;2024-01-15T00:07:15;45.20;42.13;51.73;;
49215;Laerm;45943;53.148;8.204;2024-01-15T00:09:41;43.84;40.63;46.80;;
49215;Laerm;45943;53.148;8.204;2024-01-15T00:12:07;44.04;40.52;58.89;;
49215;Laerm;45943;53.148;8.204;2024-01-15T00:14:33;43.92;41.22;50.23;;
49215;Laerm;45943;53.148;8.204;2024-01-15T00:16:58;44.79;41.31;53.79;;
49215;Laerm;45943;53.148;8.204;2024-01-15T00:19:24;42.96;40.52;46.20;;
49215;Laerm;45943;53.148;8.204;2024-01-15T00:21:50;43.54;40.52;48.28;;
49215;Laerm;45943;53.148;8.204;2024-01-15T00:24:16;43.62;40.63;47.57;;
49215;Laerm;45943;53.148;8.204;2024-01-15T00:26:42;44.92;41.03;57.17;;
49215;Laerm;45943;53.148;8.204;2024-01-15T00:29:09;44.08;41.49;64.21;;
49215;Laerm;45943;53.148;8.204;2024-01-15T00:31:35;44.69;40.93;54.73;;
49215;Laerm;45943;53.148;8.204;2024-01-15T00:34:02;65.29;42.56;77.36;;
49215;Laerm;45943;53.148;8.204;2024-01-15T00:36:28;45.87;42.42;58.22;;
49215;Laerm;45943;53.148;8.204;2024-01-15T00:38:54;51.02;41.98;71.29;;
49215;Laerm;45943;53.148;8.204;2024-01-15T00:41:20;44.25;41.66;57.87;;
49215;Laerm;45943;53.148;8.204;2024-01-15T00:43:46;43.33;40.30;54.31;;
49215;Laerm;45943;53.148;8.204;2024-01-15T00:46:15;46.83;41.58;72.65;;
49215;Laerm;45943;53.148;8.204;2024-01-15T00:48:41;52.13;41.31;72.67;;
49215;Laerm;45943;53.148;8.204;2024-01-15T00:51:07;45.33;41.49;61.34;;
49215;Laerm;45943;53.148;8.204;2024-01-15T00:53:33;45.15;41.58;57.23;;
49215;Laerm;45943;53.148;8.204;2024-01-15T00:55:59;44.30;40.83;58.18;;
49215;Laerm;45943;53.148;8.204;2024-01-15T00:58:26;44.17;40.73;59.95;;
49215;Laerm;45943;53.148;8.204;2024-01-15T01:00:52;44.35;40.93;55.52;;
49215;Laerm;45943;53.148;8.204;2024-01-15T01:03:18;44.61;40.93;53.14;;
49215;Laerm;45943;53.148;8.204;2024-01-15T01:05:44;46.09;42.69;68.52;;
49215;Laerm;45943;53.148;8.204;2024-01-15T01:08:10;57.63;42.63;74.33;;
49215;Laerm;45943;53.148;8.204;2024-01-15T01:10:37;58.53;40.06;73.00;;
49215;Laerm;45943;53.148;8.204;2024-01-15T01:13:04;45.01;41.03;58.43;;
49215;Laerm;45943;53.148;8.204;2024-01-15T01:15:30;46.81;41.58;68.05;;
49215;Laerm;45943;53.148;8.204;2024-01-15T01:17:56;58.44;40.63;71.71;;
49215;Laerm;45943;53.148;8.204;2024-01-15T01:20:22;44.24;40.83;58.83;;
49215;Laerm;45943;53.148;8.204;2024-01-15T01:22:48;49.99;41.66;70.59;;
49215;Laerm;45943;53.148;8.204;2024-01-15T01:25:14;43.37;39.94;55.74;;
49215;Laerm;45943;53.148;8.204;2024-01-15T01:27:40;48.85;41.03;68.67;;
49215;Laerm;45943;53.148;8.204;2024-01-15T01:30:06;43.18;40.73;48.06;;
49215;Laerm;45943;53.148;8.204;2024-01-15T01:32:32;43.58;40.18;62.31;;
49215;Laerm;45943;53.148;8.204;2024-01-15T01:34:58;43.30;40.30;53.37;;
49215;Laerm;45943;53.148;8.204;2024-01-15T01:37:24;43.80;41.31;49.18;;
49215;Laerm;45943;53.148;8.204;2024-01-15T01:39:50;44.72;42.06;50.49;;
49215;Laerm;45943;53.148;8.204;2024-01-15T01:42:16;44.76;41.82;59.35;;
49215;Laerm;45943;53.148;8.204;2024-01-15T01:44:42;44.00;41.66;58.94;;
49215;Laerm;45943;53.148;8.204;2024-01-15T01:47:09;44.10;40.83;55.61;;
49215;Laerm;45943;53.148;8.204;2024-01-15T01:49:35;46.02;40.93;64.88;;
49215;Laerm;45943;53.148;8.204;2024-01-15T01:52:05;47.18;41.13;69.37;;
49215;Laerm;45943;53.148;8.204;2024-01-15T01:54:32;48.15;41.40;65.98;;
49215;Laerm;45943;53.148;8.204;2024-01-15T01:56:59;44.91;41.74;62.85;;
49215;Laerm;45943;53.148;8.204;2024-01-15T01:59:27;43.36;40.41;53.41;;
49215;Laerm;45943;53.148;8.204;2024-01-15T02:01:54;43.87;40.63;52.43;;
49215;Laerm;45943;53.148;8.204;2024-01-15T02:04:23;43.71;40.93;50.96;;
49215;Laerm;45943;53.148;8.204;2024-01-15T02:06:50;43.91;41.58;52.03;;
49215;Laerm;45943;53.148;8.204;2024-01-15T02:09:17;43.76;40.73;50.87;;
49215;Laerm;45943;53.148;8.204;2024-01-15T02:11:46;43.73;41.03;53.45;;
49215;Laerm;45943;53.148;8.204;2024-01-15T02:14:12;45.04;42.49;53.95;;
49215;Laerm;45943;53.148;8.204;2024-01-15T02:16:38;51.01;42.28;71.07;;
49215;Laerm;45943;53.148;8.204;2024-01-15T02:19:04;44.48;42.06;51.40;;
49215;Laerm;45943;53.148;8.204;2024-01-15T02:21:31;44.89;42.42;54.19;;
49215;Laerm;45943;53.148;8.204;2024-01-15T02:23:58;44.84;42.13;51.40;;
49215;Laerm;45943;53.148;8.204;2024-01-15T02:26:24;44.10;40.83;56.12;;
49215;Laerm;45943;53.148;8.204;2024-01-15T02:28:50;44.90;41.40;56.59;;
49215;Laerm;45943;53.148;8.204;2024-01-15T02:31:17;44.90;42.06;54.89;;
49215;Laerm;45943;53.148;8.204;2024-01-15T02:33:43;45.26;42.48;56.43;;
49215;Laerm;45943;53.148;8.204;2024-01-15T02:36:11;45.84;41.82;57.30;;
49215;Laerm;45943;53.148;8.204;2024-01-15T02:38:38;44.44;41.31;56.51;;
49215;Laerm;45943;53.148;8.204;2024-01-15T02:41:04;44.58;42.06;51.00;;
49215;Laerm;45943;53.148;8.204;2024-01-15T02:43:30;45.50;42.95;56.75;;
49215;Laerm;45943;53.148;8.204;2024-01-15T02:45:56;52.77;42.21;70.95;;
49215;Laerm;45943;53.148;8.204;2024-01-15T02:48:22;45.87;42.06;58.06;;
49215;Laerm;45943;53.148;8.204;2024-01-15T02:50:48;45.47;42.06;70.73;;
49215;Laerm;45943;53.148;8.204;2024-01-15T02:53:14;45.89;42.49;61.43;;
49215;Laerm;45943;53.148;8.204;2024-01-15T02:55:40;46.91;42.21;59.34;;
49215;Laerm;45943;53.148;8.204;2024-01-15T02:58:07;46.22;42.82;59.64;;
49215;Laerm;45943;53.148;8.204;2024-01-15T03:00:33;45.13;42.35;60.39;;
49215;Laerm;45943;53.148;8.204;2024-01-15T03:02:59;44.70;42.06;53.14;;
49215;Laerm;45943;53.148;8.204;2024-01-15T03:05:25;62.63;43.19;74.87;;
49215;Laerm;45943;53.148;8.204;2024-01-15T03:07:51;45.80;42.28;58.98;;
49215;Laerm;45943;53.148;8.204;2024-01-15T03:10:17;60.54;43.13;80.26;;
49215;Laerm;45943;53.148;8.204;2024-01-15T03:12:43;44.18;41.58;51.15;;
49215;Laerm;45943;53.148;8.204;2024-01-15T03:15:09;44.48;41.90;51.68;;
49215;Laerm;45943;53.148;8.204;2024-01-15T03:17:35;44.61;42.06;54.15;;
49215;Laerm;45943;53.148;8.204;2024-01-15T03:20:01;44.24;41.90;57.76;;
49215;Laerm;45943;53.148;8.204;2024-01-15T03:22:28;44.29;41.82;50.56;;
49215;Laerm;45943;53.148;8.204;2024-01-15T03:24:54;44.84;42.42;59.55;;
49215;Laerm;45943;53.148;8.204;2024-01-15T03:27:20;44.51;42.13;50.42;;
49215;Laerm;45943;53.148;8.204;2024-01-15T03:29:46;65.51;42.13;85.50;;
49215;Laerm;45943;53.148;8.204;2024-01-15T03:32:12;49.57;42.89;67.62;;
49215;Laerm;45943;53.148;8.204;2024-01-15T03:34:38;44.72;42.28;48.61;;
49215;Laerm;45943;53.148;8.204;2024-01-15T03:37:04;45.70;43.53;53.66;;
49215;Laerm;45943;53.148;8.204;2024-01-15T03:39:30;44.89;42.76;60.79;;
49215;Laerm;45943;53.148;8.204;2024-01-15T03:41:56;44.89;42.89;51.52;;
49215;Laerm;45943;53.148;8.204;2024-01-15T03:44:23;44.61;42.82;52.52;;
49215;Laerm;45943;53.148;8.204;2024-01-15T03:46:49;45.06;43.01;51.81;;
49215;Laerm;45943;53.148;8.204;2024-01-15T03:49:15;45.08;42.49;51.68;;
49215;Laerm;45943;53.148;8.204;2024-01-15T03:51:41;48.83;42.89;67.57;;
49215;Laerm;45943;53.148;8.204;2024-01-15T03:54:07;45.04;42.76;49.06;;
49215;Laerm;45943;53.148;8.204;2024-01-15T03:56:33;45.72;43.48;50.22;;
49215;Laerm;45943;53.148;8.204;2024-01-15T03:58:59;51.88;42.73;69.29;;
49215;Laerm;45943;53.148;8.204;2024-01-15T04:01:25;50.51;43.01;70.46;;
49215;Laerm;45943;53.148;8.204;2024-01-15T04:03:51;44.33;42.13;47.31;;
49215;Laerm;45943;53.148;8.204;2024-01-15T04:06:17;45.22;42.82;51.20;;
49215;Laerm;45943;53.148;8.204;2024-01-15T04:08:43;49.14;43.53;64.28;;
49215;Laerm;45943;53.148;8.204;2024-01-15T04:11:09;46.63;43.01;60.74;;
49215;Laerm;45943;53.148;8.204;2024-01-15T04:13:35;48.25;43.31;65.27;;
49215;Laerm;45943;53.148;8.204;2024-01-15T04:16:01;45.47;43.31;55.06;;
49215;Laerm;45943;53.148;8.204;2024-01-15T04:18:27;46.05;43.94;59.21;;
49215;Laerm;45943;53.148;8.204;2024-01-15T04:20:53;52.99;44.14;71.75;;
49215;Laerm;45943;53.148;8.204;2024-01-15T04:23:20;51.20;44.50;67.78;;
49215;Laerm;45943;53.148;8.204;2024-01-15T04:25:46;54.12;44.18;72.87;;
49215;Laerm;45943;53.148;8.204;2024-01-15T04:28:12;57.60;43.99;77.00;;
49215;Laerm;45943;53.148;8.204;2024-01-15T04:30:38;47.46;44.37;60.30;;
49215;Laerm;45943;53.148;8.204;2024-01-15T04:33:04;49.61;43.53;67.23;;
49215;Laerm;45943;53.148;8.204;2024-01-15T04:35:30;45.64;43.58;54.15;;
49215;Laerm;45943;53.148;8.204;2024-01-15T04:37:57;46.78;44.28;58.31;;
49215;Laerm;45943;53.148;8.204;2024-01-15T04:40:22;51.91;44.14;68.62;;
49215;Laerm;45943;53.148;8.204;2024-01-15T04:42:48;50.71;44.23;60.00;;
49215;Laerm;45943;53.148;8.204;2024-01-15T04:45:14;49.98;43.79;68.19;;
49215;Laerm;45943;53.148;8.204;2024-01-15T04:47:40;53.20;44.23;68.76;;
49215;Laerm;45943;53.148;8.204;2024-01-15T04:50:08;47.28;44.23;61.75;;
49215;Laerm;45943;53.148;8.204;2024-01-15T04:52:34;53.93;44.18;74.92;;
49215;Laerm;45943;53.148;8.204;2024-01-15T04:55:00;46.31;44.28;57.34;;
49215;Laerm;45943;53.148;8.204;2024-01-15T04:57:26;54.52;44.59;71.27;;
49215;Laerm;45943;53.148;8.204;2024-01-15T04:59:52;47.75;44.09;60.06;;
49215;Laerm;45943;53.148;8.204;2024-01-15T05:02:18;54.55;44.09;75.01;;
49215;Laerm;45943;53.148;8.204;2024-01-15T05:04:44;46.83;44.54;62.14;;
49215;Laerm;45943;53.148;8.204;2024-01-15T05:07:10;45.76;43.69;55.66;;
49215;Laerm;45943;53.148;8.204;2024-01-15T05:09:35;48.90;43.79;61.97;;
49215;Laerm;45943;53.148;8.204;2024-01-15T05:12:02;48.73;44.32;64.81;;
49215;Laerm;45943;53.148;8.204;2024-01-15T05:14:28;52.43;43.94;72.89;;
49215;Laerm;45943;53.148;8.204;2024-01-15T05:16:53;55.19;44.23;73.42;;
49215;Laerm;45943;53.148;8.204;2024-01-15T05:19:19;50.94;44.28;69.07;;
49215;Laerm;45943;53.148;8.204;2024-01-15T05:21:45;57.33;44.59;75.67;;
49215;Laerm;45943;53.148;8.204;2024-01-15T05:24:11;50.84;45.07;69.45;;
49215;Laerm;45943;53.148;8.204;2024-01-15T05:26:37;53.38;44.28;71.69;;
49215;Laerm;45943;53.148;8.204;2024-01-15T05:29:03;49.97;44.54;67.76;;
49215;Laerm;45943;53.148;8.204;2024-01-15T05:31:29;46.88;44.28;57.56;;
49215;Laerm;45943;53.148;8.204;2024-01-15T05:33:55;52.60;44.71;69.35;;
49215;Laerm;45943;53.148;8.204;2024-01-15T05:36:21;50.68;44.67;65.72;;
49215;Laerm;45943;53.148;8.204;2024-01-15T05:38:47;53.69;44.95;68.82;;
49215;Laerm;45943;53.148;8.204;2024-01-15T05:41:14;62.08;44.23;82.19;;
49215;Laerm;45943;53.148;8.204;2024-01-15T05:43:40;56.22;44.41;70.67;;
49215;Laerm;45943;53.148;8.204;2024-01-15T05:46:06;50.33;44.63;67.15;;
49215;Laerm;45943;53.148;8.204;2024-01-15T05:48:32;51.50;44.87;69.52;;
49215;Laerm;45943;53.148;8.204;2024-01-15T05:50:58;55.96;44.46;71.79;;
49215;Laerm;45943;53.148;8.204;2024-01-15T05:53:24;56.14;45.61;71.56;;
49215;Laerm;45943;53.148;8.204;2024-01-15T05:55:50;53.88;45.36;71.33;;
49215;Laerm;45943;53.148;8.204;2024-01-15T05:58:16;54.90;45.29;71.11;;
49215;Laerm;45943;53.148;8.204;2024-01-15T06:00:42;56.46;45.33;73.45;;
49215;Laerm;45943;53.148;8.204;2024-01-15T06:03:08;57.00;45.83;75.26;;
49215;Laerm;45943;53.148;8.204;2024-01-15T06:05:34;54.83;45.90;69.77;;
49215;Laerm;45943;53.148;8.204;2024-01-15T06:08:00;57.58;45.96;74.18;;
49215;Laerm;45943;53.148;8.204;2024-01-15T06:10:26;58.52;46.73;70.50;;
49215;Laerm;45943;53.148;8.204;2024-01-15T06:12:52;56.41;46.08;72.88;;
49215;Laerm;45943;53.148;8.204;2024-01-15T06:15:18;54.02;45.74;71.43;;
49215;Laerm;45943;53.148;8.204;2024-01-15T06:17:44;56.80;45.64;75.45;;
49215;Laerm;45943;53.148;8.204;2024-01-15T06:20:10;58.34;45.25;72.44;;
49215;Laerm;45943;53.148;8.204;2024-01-15T06:22:37;57.36;45.50;70.81;;
49215;Laerm;45943;53.148;8.204;2024-01-15T06:25:08;55.22;44.95;71.26;;
49215;Laerm;45943;53.148;8.204;2024-01-15T06:27:34;57.38;45.25;71.70;;
49215;Laerm;45943;53.148;8.204;2024-01-15T06:30:00;56.69;46.08;70.77;;
49215;Laerm;45943;53.148;8.204;2024-01-15T06:32:26;57.72;44.99;72.21;;
49215;Laerm;45943;53.148;8.204;2024-01-15T06:34:52;52.25;44.91;68.64;;
49215;Laerm;45943;53.148;8.204;2024-01-15T06:37:18;56.85;45.25;70.18;;
49215;Laerm;45943;53.148;8.204;2024-01-15T06:39:45;58.45;45.14;70.80;;
49215;Laerm;45943;53.148;8.204;2024-01-15T06:42:11;55.96;44.63;69.79;;
49215;Laerm;45943;53.148;8.204;2024-01-15T06:44:37;56.68;45.61;70.18;;
49215;Laerm;45943;53.148;8.204;2024-01-15T06:47:04;55.22;44.91;67.02;;
49215;Laerm;45943;53.148;8.204;2024-01-15T06:49:30;56.94;44.71;72.18;;
49215;Laerm;45943;53.148;8.204;2024-01-15T06:51:56;58.02;45.40;68.01;;
49215;Laerm;45943;53.148;8.204;2024-01-15T06:54:22;58.13;45.11;75.69;;
49215;Laerm;45943;53.148;8.204;2024-01-15T06:56:49;62.09;45.64;80.13;;
49215;Laerm;45943;53.148;8.204;2024-01-15T06:59:16;57.29;46.93;70.11;;
49215;Laerm;45943;53.148;8.204;2024-01-15T07:01:42;58.33;45.77;69.73;;
49215;Laerm;45943;53.148;8.204;2024-01-15T07:04:08;59.38;48.50;70.05;;
49215;Laerm;45943;53.148;8.204;2024-01-15T07:06:34;57.81;47.74;70.51;;
49215;Laerm;45943;53.148;8.204;2024-01-15T07:09:00;58.27;47.08;71.09;;
49215;Laerm;45943;53.148;8.204;2024-01-15T07:11:26;59.61;46.95;71.12;;
49215;Laerm;45943;53.148;8.204;2024-01-15T07:13:52;57.02;45.54;72.26;;
49215;Laerm;45943;53.148;8.204;2024-01-15T07:16:17;60.52;48.86;74.59;;
49215;Laerm;45943;53.148;8.204;2024-01-15T07:18:43;59.04;46.11;72.85;;
49215;Laerm;45943;53.148;8.204;2024-01-15T07:21:10;58.17;45.77;70.46;;
49215;Laerm;45943;53.148;8.204;2024-01-15T07:23:36;59.09;45.71;73.55;;
49215;Laerm;45943;53.148;8.204;2024-01-15T07:26:02;54.73;45.03;70.75;;
49215;Laerm;45943;53.148;8.204;2024-01-15T07:28:31;60.48;44.67;71.68;;
49215;Laerm;45943;53.148;8.204;2024-01-15T07:30:57;57.14;44.83;72.15;;
49215;Laerm;45943;53.148;8.204;2024-01-15T07:33:23;54.84;45.19;70.19;;
49215;Laerm;45943;53.148;8.204;2024-01-15T07:35:49;58.71;45.64;72.66;;
49215;Laerm;45943;53.148;8.204;2024-01-15T07:38:15;53.65;45.77;68.91;;
49215;Laerm;45943;53.148;8.204;2024-01-15T07:40:41;59.91;45.36;72.36;;
49215;Laerm;45943;53.148;8.204;2024-01-15T07:43:07;53.41;44.54;68.41;;
49215;Laerm;45943;53.148;8.204;2024-01-15T07:45:33;58.16;45.43;70.17;;
49215;Laerm;45943;53.148;8.204;2024-01-15T07:47:59;58.57;45.09;71.58;;
49215;Laerm;45943;53.148;8.204;2024-01-15T07:50:25;56.52;44.95;69.67;;
49215;Laerm;45943;53.148;8.204;2024-01-15T07:52:51;57.29;45.50;70.39;;
49215;Laerm;45943;53.148;8.204;2024-01-15T07:55:18;63.21;45.61;74.95;;
49215;Laerm;45943;53.148;8.204;2024-01-15T07:57:44;56.98;44.83;75.15;;
49215;Laerm;45943;53.148;8.204;2024-01-15T08:00:10;54.26;44.63;69.60;;
49215;Laerm;45943;53.148;8.204;2024-01-15T08:02:36;57.92;45.47;70.94;;
49215;Laerm;45943;53.148;8.204;2024-01-15T08:05:03;55.22;44.67;71.33;;
49215;Laerm;45943;53.148;8.204;2024-01-15T08:07:28;56.35;44.09;70.58;;
49215;Laerm;45943;53.148;8.204;2024-01-15T08:09:54;57.21;45.71;70.52;;
49215;Laerm;45943;53.148;8.204;2024-01-15T08:12:20;56.06;45.77;71.01;;
49215;Laerm;45943;53.148;8.204;2024-01-15T08:14:47;57.64;45.87;71.50;;
49215;Laerm;45943;53.148;8.204;2024-01-15T08:17:13;56.56;45.54;71.59;;
49215;Laerm;45943;53.148;8.204;2024-01-15T08:19:39;55.12;44.83;69.47;;
49215;Laerm;45943;53.148;8.204;2024-01-15T08:22:06;55.69;44.67;70.60;;
49215;Laerm;45943;53.148;8.204;2024-01-15T08:24:32;53.71;44.95;68.79;;
49215;Laerm;45943;53.148;8.204;2024-01-15T08:26:59;58.30;44.99;75.40;;
49215;Laerm;45943;53.148;8.204;2024-01-15T08:29:25;55.92;44.32;70.21;;
49215;Laerm;45943;53.148;8.204;2024-01-15T08:31:51;55.32;44.14;72.46;;
49215;Laerm;45943;53.148;8.204;2024-01-15T08:34:17;52.68;45.29;67.94;;
49215;Laerm;45943;53.148;8.204;2024-01-15T08:36:42;66.54;46.02;83.22;;
49215;Laerm;45943;53.148;8.204;2024-01-15T08:39:08;57.29;44.99;76.62;;
49215;Laerm;45943;53.148;8.204;2024-01-15T08:41:34;56.85;45.47;71.03;;
49215;Laerm;45943;53.148;8.204;2024-01-15T08:44:01;55.41;45.71;69.79;;
49215;Laerm;45943;53.148;8.204;2024-01-15T08:46:28;50.98;45.64;67.77;;
49215;Laerm;45943;53.148;8.204;2024-01-15T08:48:54;51.56;45.36;68.67;;
49215;Laerm;45943;53.148;8.204;2024-01-15T08:51:20;57.17;45.74;71.81;;
49215;Laerm;45943;53.148;8.204;2024-01-15T08:53:46;57.21;45.77;73.55;;
49215;Laerm;45943;53.148;8.204;2024-01-15T08:56:12;54.68;44.59;69.34;;
49215;Laerm;45943;53.148;8.204;2024-01-15T08:58:38;58.94;45.07;71.83;;
49215;Laerm;45943;53.148;8.204;2024-01-15T09:01:04;56.54;45.25;72.54;;
49215;Laerm;45943;53.148;8.204;2024-01-15T09:03:31;56.03;45.83;74.88;;
49215;Laerm;45943;53.148;8.204;2024-01-15T09:05:57;51.88;44.54;73.92;;
49215;Laerm;45943;53.148;8.204;2024-01-15T09:08:23;56.28;45.29;71.33;;
49215;Laerm;45943;53.148;8.204;2024-01-15T09:10:50;55.92;45.80;70.44;;
49215;Laerm;45943;53.148;8.204;2024-01-15T09:13:16;54.29;44.67;69.32;;
49215;Laerm;45943;53.148;8.204;2024-01-15T09:15:42;51.79;44.91;69.65;;
49215;Laerm;45943;53.148;8.204;2024-01-15T09:18:08;54.20;45.50;69.46;;
49215;Laerm;45943;53.148;8.204;2024-01-15T09:20:35;58.23;46.54;75.64;;
49215;Laerm;45943;53.148;8.204;2024-01-15T09:23:01;57.23;45.54;70.97;;
49215;Laerm;45943;53.148;8.204;2024-01-15T09:25:27;57.15;45.97;71.44;;
49215;Laerm;45943;53.148;8.204;2024-01-15T09:27:53;58.38;46.57;71.82;;
49215;Laerm;45943;53.148;8.204;2024-01-15T09:30:19;58.67;45.07;74.90;;
49215;Laerm;45943;53.148;8.204;2024-01-15T09:32:45;55.93;45.05;75.10;;
49215;Laerm;45943;53.148;8.204;2024-01-15T09:35:11;58.75;45.36;73.95;;
49215;Laerm;45943;53.148;8.204;2024-01-15T09:37:39;54.67;45.74;68.96;;
49215;Laerm;45943;53.148;8.204;2024-01-15T09:40:06;58.36;46.49;71.76;;
49215;Laerm;45943;53.148;8.204;2024-01-15T09:42:34;54.18;45.29;71.10;;
49215;Laerm;45943;53.148;8.204;2024-01-15T09:45:01;59.33;46.35;73.48;;
49215;Laerm;45943;53.148;8.204;2024-01-15T09:47:29;60.46;45.36;75.08;;
49215;Laerm;45943;53.148;8.204;2024-01-15T09:49:55;59.43;45.36;74.25;;
49215;Laerm;45943;53.148;8.204;2024-01-15T09:52:24;59.80;45.22;72.19;;
49215;Laerm;45943;53.148;8.204;2024-01-15T09:54:51;59.93;44.28;74.58;;
49215;Laerm;45943;53.148;8.204;2024-01-15T09:57:17;59.84;44.64;73.57;;
49215;Laerm;45943;53.148;8.204;2024-01-15T09:59:44;59.41;45.43;75.26;;
49215;Laerm;45943;53.148;8.204;2024-01-15T10:02:13;58.79;46.14;74.70;;
49215;Laerm;45943;53.148;8.204;2024-01-15T10:04:43;56.95;45.33;72.52;;
49215;Laerm;45943;53.148;8.204;2024-01-15T10:07:15;58.45;45.07;72.39;;
49215;Laerm;45943;53.148;8.204;2024-01-15T10:09:46;62.94;45.80;77.74;;
49215;Laerm;45943;53.148;8.204;2024-01-15T10:12:12;58.60;45.36;75.24;;
49215;Laerm;45943;53.148;8.204;2024-01-15T10:14:38;54.44;45.07;69.88;;
49215;Laerm;45943;53.148;8.204;2024-01-15T10:17:13;57.35;45.07;74.11;;
49215;Laerm;45943;53.148;8.204;2024-01-15T10:19:41;56.45;44.91;71.27;;
49215;Laerm;45943;53.148;8.204;2024-01-15T10:22:08;58.51;45.22;73.09;;
49215;Laerm;45943;53.148;8.204;2024-01-15T10:24:36;58.44;46.14;73.40;;
49215;Laerm;45943;53.148;8.204;2024-01-15T10:27:10;59.86;45.36;77.04;;
49215;Laerm;45943;53.148;8.204;2024-01-15T10:29:37;57.28;45.67;71.48;;
49215;Laerm;45943;53.148;8.204;2024-01-15T10:32:06;56.59;45.99;73.50;;
49215;Laerm;45943;53.148;8.204;2024-01-15T10:34:37;58.88;45.33;73.99;;
49215;Laerm;45943;53.148;8.204;2024-01-15T10:37:04;56.34;44.87;73.99;;
49215;Laerm;45943;53.148;8.204;2024-01-15T10:39:30;58.02;44.50;74.24;;
49215;Laerm;45943;53.148;8.204;2024-01-15T10:41:56;56.58;44.87;70.61;;
49215;Laerm;45943;53.148;8.204;2024-01-15T10:44:22;59.43;44.54;73.81;;
49215;Laerm;45943;53.148;8.204;2024-01-15T10:46:48;59.62;45.43;68.20;;
49215;Laerm;45943;53.148;8.204;2024-01-15T10:49:14;58.55;45.18;73.14;;
49215;Laerm;45943;53.148;8.204;2024-01-15T10:51:41;57.52;45.29;73.72;;
49215;Laerm;45943;53.148;8.204;2024-01-15T10:54:09;54.84;44.71;74.17;;
49215;Laerm;45943;53.148;8.204;2024-01-15T10:56:36;51.08;44.67;68.94;;
49215;Laerm;45943;53.148;8.204;2024-01-15T10:59:03;58.51;45.25;76.55;;
49215;Laerm;45943;53.148;8.204;2024-01-15T11:01:30;58.52;44.63;72.31;;
49215;Laerm;45943;53.148;8.204;2024-01-15T11:03:57;59.55;46.61;75.42;;
49215;Laerm;45943;53.148;8.204;2024-01-15T11:06:24;57.99;44.59;75.97;;
49215;Laerm;45943;53.148;8.204;2024-01-15T11:08:52;59.32;45.18;79.38;;
49215;Laerm;45943;53.148;8.204;2024-01-15T11:11:21;57.31;44.79;74.96;;
49215;Laerm;45943;53.148;8.204;2024-01-15T11:13:48;51.92;44.54;68.72;;
49215;Laerm;45943;53.148;8.204;2024-01-15T11:16:16;57.20;44.32;73.87;;
49215;Laerm;45943;53.148;8.204;2024-01-15T11:19:02;56.16;44.95;71.70;;
49215;Laerm;45943;53.148;8.204;2024-01-15T11:21:28;58.85;44.99;71.74;;
49215;Laerm;45943;53.148;8.204;2024-01-15T11:23:57;57.65;45.03;72.18;;
49215;Laerm;45943;53.148;8.204;2024-01-15T11:26:44;55.96;44.32;70.68;;
49215;Laerm;45943;53.148;8.204;2024-01-15T11:29:30;57.39;44.18;71.81;;
49215;Laerm;45943;53.148;8.204;2024-01-15T11:32:09;58.92;44.37;73.67;;
49215;Laerm;45943;53.148;8.204;2024-01-15T11:34:56;55.71;44.23;72.23;;
49215;Laerm;45943;53.148;8.204;2024-01-15T11:37:25;54.88;44.71;71.09;;
49215;Laerm;45943;53.148;8.204;2024-01-15T11:39:52;57.18;44.83;70.39;;
49215;Laerm;45943;53.148;8.204;2024-01-15T11:42:21;58.33;45.03;71.90;;
49215;Laerm;45943;53.148;8.204;2024-01-15T11:44:48;57.10;45.11;71.40;;
49215;Laerm;45943;53.148;8.204;2024-01-15T11:47:14;61.28;45.18;76.22;;
49215;Laerm;45943;53.148;8.204;2024-01-15T11:50:02;55.58;45.07;74.26;;
49215;Laerm;45943;53.148;8.204;2024-01-15T11:52:35;59.34;45.64;75.09;;
49215;Laerm;45943;53.148;8.204;2024-01-15T11:55:34;59.31;44.79;75.55;;
49215;Laerm;45943;53.148;8.204;2024-01-15T11:58:07;57.98;45.07;74.43;;
49215;Laerm;45943;53.148;8.204;2024-01-15T12:00:34;57.45;45.14;73.41;;
49215;Laerm;45943;53.148;8.204;2024-01-15T12:03:00;54.63;45.07;72.74;;
49215;Laerm;45943;53.148;8.204;2024-01-15T12:05:27;56.61;45.03;71.47;;
49215;Laerm;45943;53.148;8.204;2024-01-15T12:07:54;56.23;44.41;74.11;;
49215;Laerm;45943;53.148;8.204;2024-01-15T12:10:20;57.93;44.71;74.21;;
49215;Laerm;45943;53.148;8.204;2024-01-15T12:15:18;57.88;44.46;71.90;;
49215;Laerm;45943;53.148;8.204;2024-01-15T12:17:45;56.81;44.63;72.48;;
49215;Laerm;45943;53.148;8.204;2024-01-15T12:20:13;60.39;45.18;78.88;;
49215;Laerm;45943;53.148;8.204;2024-01-15T12:22:41;56.41;44.46;70.83;;
49215;Laerm;45943;53.148;8.204;2024-01-15T12:25:07;57.05;46.88;72.59;;
49215;Laerm;45943;53.148;8.204;2024-01-15T12:27:33;57.50;44.79;70.94;;
49215;Laerm;45943;53.148;8.204;2024-01-15T12:29:59;59.58;44.91;75.75;;
49215;Laerm;45943;53.148;8.204;2024-01-15T12:32:25;57.95;44.63;75.86;;
49215;Laerm;45943;53.148;8.204;2024-01-15T12:34:51;55.61;45.03;70.55;;
49215;Laerm;45943;53.148;8.204;2024-01-15T12:37:18;51.21;45.50;67.11;;
49215;Laerm;45943;53.148;8.204;2024-01-15T12:39:45;58.05;45.47;72.01;;
49215;Laerm;45943;53.148;8.204;2024-01-15T12:42:11;53.06;46.32;66.32;;
49215;Laerm;45943;53.148;8.204;2024-01-15T12:44:37;57.84;44.95;71.70;;
49215;Laerm;45943;53.148;8.204;2024-01-15T12:47:05;56.05;44.87;69.78;;
49215;Laerm;45943;53.148;8.204;2024-01-15T12:49:31;57.31;44.75;72.48;;
49215;Laerm;45943;53.148;8.204;2024-01-15T12:51:58;56.07;44.18;71.38;;
49215;Laerm;45943;53.148;8.204;2024-01-15T12:54:24;56.13;44.71;72.53;;
49215;Laerm;45943;53.148;8.204;2024-01-15T12:56:51;55.94;44.83;68.85;;
49215;Laerm;45943;53.148;8.204;2024-01-15T12:59:18;56.04;45.36;74.69;;
49215;Laerm;45943;53.148;8.204;2024-01-15T13:01:45;55.87;44.87;69.89;;
49215;Laerm;45943;53.148;8.204;2024-01-15T13:04:21;48.29;44.63;69.09;;
49215;Laerm;45943;53.148;8.204;2024-01-15T13:06:47;58.47;45.25;71.91;;
49215;Laerm;45943;53.148;8.204;2024-01-15T13:09:15;57.33;44.53;73.76;;
49215;Laerm;45943;53.148;8.204;2024-01-15T13:11:41;56.89;44.87;74.06;;
49215;Laerm;45943;53.148;8.204;2024-01-15T13:14:07;55.43;44.71;71.36;;
49215;Laerm;45943;53.148;8.204;2024-01-15T13:16:33;57.90;45.87;70.86;;
49215;Laerm;45943;53.148;8.204;2024-01-15T13:18:59;55.83;44.63;71.08;;
49215;Laerm;45943;53.148;8.204;2024-01-15T13:21:25;56.77;44.50;70.84;;
49215;Laerm;45943;53.148;8.204;2024-01-15T13:23:51;55.74;45.36;70.28;;
49215;Laerm;45943;53.148;8.204;2024-01-15T13:26:17;54.69;44.67;72.67;;
49215;Laerm;45943;53.148;8.204;2024-01-15T13:28:44;58.13;44.54;72.16;;
49215;Laerm;45943;53.148;8.204;2024-01-15T13:31:11;54.66;44.37;70.88;;
49215;Laerm;45943;53.148;8.204;2024-01-15T13:33:37;55.37;44.63;69.03;;
49215;Laerm;45943;53.148;8.204;2024-01-15T13:36:03;57.10;44.91;71.73;;
49215;Laerm;45943;53.148;8.204;2024-01-15T13:38:29;57.61;44.71;75.95;;
49215;Laerm;45943;53.148;8.204;2024-01-15T13:41:02;60.02;45.40;72.75;;
49215;Laerm;45943;53.148;8.204;2024-01-15T13:43:28;58.25;44.91;70.97;;
49215;Laerm;45943;53.148;8.204;2024-01-15T13:45:54;53.73;44.50;69.93;;